createdAt,value
2022-10-06T00:02:20.400Z,12.70
2022-10-06T00:07:21.896Z,12.63
2022-10-06T00:12:23.307Z,12.57
2022-10-06T00:17:24.716Z,12.61
2022-10-06T00:22:26.112Z,12.55
2022-10-06T00:27:34.167Z,12.46
2022-10-06T00:32:35.695Z,12.48
2022-10-06T00:37:38.012Z,12.47
2022-10-06T00:42:52.996Z,12.43
2022-10-06T00:47:59.048Z,12.43
2022-10-06T00:53:00.557Z,12.46
2022-10-06T00:58:02.036Z,12.61
2022-10-06T01:03:06.844Z,12.75
2022-10-06T01:08:08.427Z,12.76
2022-10-06T01:13:12.174Z,12.65
2022-10-06T01:18:17.568Z,12.56
2022-10-06T01:23:19.347Z,12.52
2022-10-06T01:28:21.542Z,12.45
2022-10-06T01:33:23.591Z,12.42
2022-10-06T01:38:26.783Z,12.46
2022-10-06T01:43:34.363Z,12.36
2022-10-06T01:48:36.617Z,12.28
2022-10-06T01:53:38.301Z,12.18
2022-10-06T01:58:39.890Z,12.13
2022-10-06T02:03:42.603Z,12.05
2022-10-06T02:08:44.027Z,11.89
2022-10-06T02:13:46.206Z,11.77
2022-10-06T02:18:48.025Z,11.77
2022-10-06T02:23:50.245Z,11.71
2022-10-06T02:28:51.750Z,11.60
2022-10-06T02:33:57.989Z,11.53
2022-10-06T02:38:59.971Z,11.51
2022-10-06T02:44:02.508Z,11.47
2022-10-06T02:49:05.045Z,11.40
2022-10-06T02:54:06.621Z,11.36
2022-10-06T02:59:09.347Z,11.37
2022-10-06T03:04:12.385Z,11.35
2022-10-06T03:09:15.830Z,11.27
2022-10-06T03:14:21.928Z,11.18
2022-10-06T03:19:25.104Z,11.13
2022-10-06T03:24:27.682Z,11.12
2022-10-06T03:29:32.069Z,11.11
2022-10-06T03:34:33.755Z,11.09
2022-10-06T03:39:38.444Z,11.13
2022-10-06T03:44:40.335Z,11.13
2022-10-06T03:49:42.340Z,11.13
2022-10-06T03:54:44.000Z,11.11
2022-10-06T03:59:45.721Z,11.08
2022-10-06T04:04:47.441Z,11.10
2022-10-06T04:09:48.979Z,11.06
2022-10-06T04:14:54.356Z,10.96
2022-10-06T04:19:58.186Z,10.95
2022-10-06T04:25:00.488Z,10.89
2022-10-06T04:30:02.118Z,10.71
2022-10-06T04:35:05.733Z,10.88
2022-10-06T04:40:08.099Z,10.83
2022-10-06T04:45:10.928Z,10.82
2022-10-06T04:50:14.577Z,10.86
2022-10-06T04:55:34.853Z,10.85
2022-10-06T05:00:38.851Z,10.81
2022-10-06T05:05:42.169Z,10.83
2022-10-06T05:10:44.371Z,10.84
2022-10-06T05:15:55.913Z,10.80
2022-10-06T05:21:20.461Z,10.84
2022-10-06T05:26:24.893Z,10.83
2022-10-06T05:31:33.064Z,10.77
2022-10-06T05:36:38.782Z,10.73
2022-10-06T05:41:41.619Z,10.73
2022-10-06T05:46:46.067Z,10.72
2022-10-06T05:51:47.978Z,10.89
2022-10-06T05:56:54.429Z,11.06
2022-10-06T06:01:57.234Z,11.28
2022-10-06T06:07:12.968Z,11.38
2022-10-06T06:12:17.091Z,11.39
2022-10-06T06:17:31.972Z,11.34
2022-10-06T06:22:36.037Z,11.15
2022-10-06T06:27:39.394Z,11.09
2022-10-06T06:32:41.924Z,11.23
2022-10-06T06:37:43.410Z,11.37
2022-10-06T06:42:45.098Z,11.53
2022-10-06T06:48:06.763Z,11.69
2022-10-06T06:53:11.715Z,12.02
2022-10-06T06:58:19.611Z,12.37
2022-10-06T07:03:45.277Z,12.84
2022-10-06T07:08:46.273Z,13.31
2022-10-06T07:13:52.958Z,13.80
2022-10-06T07:18:54.467Z,14.24
2022-10-06T07:23:56.351Z,14.64
2022-10-06T07:28:58.566Z,14.97
2022-10-06T07:34:00.792Z,15.35
2022-10-06T07:39:03.119Z,15.63
2022-10-06T07:44:07.997Z,15.83
2022-10-06T07:49:10.545Z,16.04
2022-10-06T07:54:12.130Z,16.06
2022-10-06T07:59:32.048Z,16.23
2022-10-06T08:04:33.495Z,16.42
2022-10-06T08:09:34.925Z,16.61
2022-10-06T08:14:36.443Z,16.86
2022-10-06T08:19:38.670Z,17.13
2022-10-06T08:25:04.200Z,17.33
2022-10-06T08:30:02.027Z,17.51
2022-10-06T08:35:05.503Z,17.79
2022-10-06T08:40:07.458Z,18.01
2022-10-06T08:45:22.941Z,18.33
2022-10-06T08:50:28.640Z,18.47
2022-10-06T08:55:50.060Z,18.66
2022-10-06T09:00:52.447Z,18.85
2022-10-06T09:06:04.235Z,19.08
2022-10-06T09:11:29.762Z,19.23
2022-10-06T09:16:36.198Z,19.40
2022-10-06T09:21:44.903Z,19.61
2022-10-06T09:26:50.543Z,19.85
2022-10-06T09:31:52.239Z,20.07
2022-10-06T09:37:02.614Z,20.31
2022-10-06T09:42:31.081Z,20.52
2022-10-06T09:47:37.004Z,20.72
2022-10-06T09:52:39.177Z,21.05
2022-10-06T09:57:52.998Z,21.54
2022-10-06T10:03:14.907Z,21.99
2022-10-06T10:08:22.406Z,22.41
2022-10-06T10:13:25.941Z,22.90
2022-10-06T10:18:31.413Z,23.44
2022-10-06T10:23:34.991Z,24.30
2022-10-06T10:29:14.831Z,25.67
2022-10-06T10:34:33.589Z,26.60
2022-10-06T10:39:44.498Z,26.25
2022-10-06T10:44:57.099Z,25.84
2022-10-06T10:50:16.752Z,25.47
2022-10-06T10:55:26.148Z,25.59
2022-10-06T11:00:29.385Z,26.07
2022-10-06T11:05:57.310Z,25.95
2022-10-06T11:11:02.241Z,25.79
2022-10-06T11:16:25.883Z,25.87
2022-10-06T11:21:47.599Z,25.43
2022-10-06T11:26:55.661Z,25.32
2022-10-06T11:32:09.236Z,25.18
2022-10-06T11:37:32.590Z,24.50
2022-10-06T11:42:42.883Z,23.98
2022-10-06T11:47:57.315Z,23.79
2022-10-06T11:52:59.943Z,23.94
2022-10-06T11:58:23.502Z,24.48
2022-10-06T12:03:30.815Z,24.97
2022-10-06T12:08:37.506Z,25.19
2022-10-06T12:19:28.447Z,25.55
2022-10-06T12:24:45.333Z,25.60
2022-10-06T12:30:01.258Z,25.51
2022-10-06T12:35:12.540Z,25.45
2022-10-06T12:40:38.881Z,25.15
2022-10-06T12:45:55.622Z,25.16
2022-10-06T12:51:13.644Z,25.08
2022-10-06T12:56:30.555Z,25.06
2022-10-06T13:01:36.018Z,24.92
2022-10-06T13:06:39.073Z,24.97
2022-10-06T13:11:40.632Z,24.98
2022-10-06T13:16:45.588Z,25.01
2022-10-06T13:21:47.784Z,24.84
2022-10-06T13:26:49.566Z,24.64
2022-10-06T13:31:53.558Z,24.65
2022-10-06T13:36:56.027Z,24.84
2022-10-06T13:42:04.501Z,24.80
2022-10-06T13:47:17.049Z,24.66
2022-10-06T13:52:36.210Z,24.48
2022-10-06T13:57:49.249Z,24.43
2022-10-06T14:03:10.142Z,24.63
2022-10-06T14:08:13.077Z,24.96
2022-10-06T14:13:25.754Z,25.47
2022-10-06T14:18:57.173Z,26.80
2022-10-06T14:24:24.112Z,27.60
2022-10-06T14:29:27.282Z,26.94
2022-10-06T14:39:59.324Z,25.49
2022-10-06T14:45:01.133Z,24.78
2022-10-06T14:50:03.675Z,25.08
2022-10-06T14:55:06.502Z,25.31
2022-10-06T15:00:10.745Z,25.19
2022-10-06T15:05:13.148Z,25.06
2022-10-06T15:10:14.676Z,25.06
2022-10-06T15:15:16.895Z,24.97
2022-10-06T15:20:23.949Z,25.04
2022-10-06T15:25:30.591Z,25.17
2022-10-06T15:30:32.962Z,26.43
2022-10-06T15:35:35.675Z,27.89
2022-10-06T15:40:37.904Z,28.39
2022-10-06T15:45:40.577Z,28.35
2022-10-06T15:50:42.785Z,27.14
2022-10-06T15:55:45.014Z,25.30
2022-10-06T16:00:47.363Z,24.04
2022-10-06T16:05:51.581Z,23.09
2022-10-06T16:10:54.246Z,22.38
2022-10-06T16:15:58.747Z,21.72
2022-10-06T16:21:01.924Z,21.30
2022-10-06T16:26:04.848Z,20.89
2022-10-06T16:31:06.285Z,20.57
2022-10-06T16:36:09.916Z,20.28
2022-10-06T16:41:12.330Z,19.96
2022-10-06T16:46:33.180Z,19.64
2022-10-06T16:51:40.427Z,19.48
2022-10-06T16:56:44.563Z,19.29
2022-10-06T17:01:48.392Z,19.05
2022-10-06T17:06:54.767Z,18.72
2022-10-06T17:11:58.776Z,18.54
2022-10-06T17:17:00.226Z,18.39
2022-10-06T17:22:01.649Z,18.29
2022-10-06T17:27:06.417Z,18.18
2022-10-06T17:32:07.874Z,18.09
2022-10-06T17:37:09.271Z,17.92
2022-10-06T17:42:10.674Z,17.82
2022-10-06T17:47:12.067Z,17.75
2022-10-06T17:52:13.504Z,17.69
2022-10-06T17:57:15.011Z,17.55
2022-10-06T18:02:16.800Z,17.37
2022-10-06T18:07:18.546Z,17.26
2022-10-06T18:12:19.951Z,17.19
2022-10-06T18:17:21.345Z,17.07
2022-10-06T18:22:22.798Z,16.95
2022-10-06T18:27:24.390Z,16.75
2022-10-06T18:34:58.814Z,16.63
2022-10-06T18:37:47.819Z,16.56
2022-10-06T18:42:49.280Z,16.43
2022-10-06T18:47:50.706Z,16.33
2022-10-06T18:52:52.116Z,16.29
2022-10-06T18:57:53.575Z,16.14
2022-10-06T19:02:54.973Z,16.01
2022-10-06T19:07:56.391Z,15.93
2022-10-06T19:12:57.761Z,15.91
2022-10-06T19:17:59.145Z,15.81
2022-10-06T19:23:00.589Z,15.74
2022-10-06T19:28:02.184Z,15.59
2022-10-06T19:33:05.316Z,15.52
2022-10-06T19:38:06.800Z,15.38
2022-10-06T19:43:08.197Z,15.26
2022-10-06T19:48:10.969Z,15.22
2022-10-06T19:53:12.471Z,15.15
2022-10-06T19:58:13.938Z,15.11
2022-10-06T20:03:15.366Z,15.16
2022-10-06T20:08:17.857Z,15.05
2022-10-06T20:13:19.404Z,15.02
2022-10-06T20:18:21.605Z,14.97
2022-10-06T20:23:24.099Z,14.89
2022-10-06T20:28:25.542Z,14.82
2022-10-06T20:33:27.153Z,14.79
2022-10-06T20:38:28.793Z,14.67
2022-10-06T20:43:30.454Z,14.61
2022-10-06T20:48:36.371Z,14.53
2022-10-06T20:53:39.580Z,14.41
2022-10-06T20:58:42.331Z,14.37
2022-10-06T21:03:49.740Z,14.28
2022-10-06T21:08:52.770Z,14.13
2022-10-06T21:13:54.232Z,14.01
2022-10-06T21:18:55.792Z,14.02
2022-10-06T21:23:57.579Z,13.97
2022-10-06T21:29:01.444Z,13.95
2022-10-06T21:34:03.895Z,13.96
2022-10-06T21:39:06.860Z,13.76
2022-10-06T21:49:31.504Z,13.61
2022-10-06T21:54:33.772Z,13.61
2022-10-06T21:59:35.345Z,13.60
2022-10-06T22:04:36.801Z,13.59
2022-10-06T22:09:38.306Z,13.63
2022-10-06T22:14:40.089Z,13.70
2022-10-06T22:19:41.562Z,13.76
2022-10-06T22:24:43.532Z,13.72
2022-10-06T22:29:44.960Z,13.78
2022-10-06T22:34:46.382Z,13.77
2022-10-06T22:39:47.825Z,13.82
2022-10-06T22:44:49.272Z,13.83
2022-10-06T22:49:50.719Z,13.85
2022-10-06T22:54:52.153Z,13.81
2022-10-06T22:59:53.576Z,13.97
2022-10-06T23:04:55.031Z,14.11
2022-10-06T23:09:56.740Z,14.14
2022-10-06T23:14:58.148Z,14.16
2022-10-06T23:20:00.006Z,14.21
2022-10-06T23:25:01.729Z,14.25
2022-10-06T23:30:05.273Z,14.21
2022-10-06T23:35:12.020Z,14.28
2022-10-06T23:40:15.216Z,14.29
2022-10-06T23:45:17.490Z,14.28
2022-10-06T23:50:19.730Z,14.23
2022-10-06T23:55:21.996Z,14.22
